createdAt,value
2022-11-02T00:00:57.754Z,10.80
2022-11-02T00:05:59.495Z,10.70
2022-11-02T00:11:01.240Z,10.70
2022-11-02T00:16:10.071Z,10.70
2022-11-02T00:21:12.878Z,10.60
2022-11-02T00:26:15.164Z,10.60
2022-11-02T00:31:17.460Z,10.60
2022-11-02T00:36:19.216Z,10.60
2022-11-02T00:41:22.098Z,10.50
2022-11-02T00:46:23.853Z,10.50
2022-11-02T00:51:26.017Z,10.50
2022-11-02T00:56:27.787Z,10.40
2022-11-02T01:01:29.977Z,10.40
2022-11-02T01:06:31.819Z,10.30
2022-11-02T01:11:34.345Z,10.30
2022-11-02T01:16:36.320Z,10.20
2022-11-02T01:21:38.135Z,10.20
2022-11-02T01:26:39.856Z,10.10
2022-11-02T01:31:41.599Z,10.10
2022-11-02T01:36:46.428Z,10.10
2022-11-02T01:41:52.739Z,10.00
2022-11-02T01:47:07.304Z,10.10
2022-11-02T01:52:14.864Z,10.00
2022-11-02T01:57:22.114Z,10.00
2022-11-02T02:02:25.877Z,9.90
2022-11-02T02:07:30.468Z,9.90
2022-11-02T02:12:34.430Z,9.80
2022-11-02T02:18:03.452Z,9.80
2022-11-02T02:23:32.536Z,9.70
2022-11-02T02:28:48.644Z,9.70
2022-11-02T02:34:09.341Z,9.60
2022-11-02T02:39:18.818Z,9.60
2022-11-02T02:44:21.990Z,9.60
2022-11-02T02:49:32.881Z,9.60
2022-11-02T02:54:41.568Z,9.50
2022-11-02T02:59:50.912Z,9.50
2022-11-02T03:04:55.342Z,9.50
2022-11-02T03:10:16.881Z,9.50
2022-11-02T03:15:26.964Z,9.50
2022-11-02T03:20:42.918Z,9.40
2022-11-02T03:25:50.978Z,9.40
2022-11-02T03:31:02.057Z,9.40
2022-11-02T03:36:15.976Z,9.30
2022-11-02T03:41:20.770Z,9.30
2022-11-02T03:46:23.870Z,9.30
2022-11-02T03:51:27.508Z,9.30
2022-11-02T03:56:35.604Z,9.20
2022-11-02T04:01:42.927Z,9.20
2022-11-02T04:06:46.069Z,9.20
2022-11-02T04:12:06.434Z,9.10
2022-11-02T04:22:51.284Z,9.10
2022-11-02T04:27:55.971Z,9.10
2022-11-02T04:33:21.836Z,9.10
2022-11-02T04:38:42.751Z,9.10
2022-11-02T04:43:55.560Z,9.00
2022-11-02T04:48:57.636Z,9.00
2022-11-02T04:54:00.554Z,9.00
2022-11-02T04:59:03.600Z,8.90
2022-11-02T05:04:10.499Z,8.90
2022-11-02T05:09:12.633Z,8.80
2022-11-02T05:14:18.029Z,8.70
2022-11-02T05:19:20.156Z,8.70
2022-11-02T05:24:22.945Z,8.70
2022-11-02T05:29:25.962Z,8.60
2022-11-02T05:34:28.223Z,8.60
2022-11-02T05:39:30.067Z,8.70
2022-11-02T05:44:32.908Z,8.60
2022-11-02T05:49:35.399Z,8.70
2022-11-02T05:54:37.179Z,8.70
2022-11-02T05:59:38.967Z,8.60
2022-11-02T06:04:40.814Z,8.70
2022-11-02T06:09:42.680Z,8.70
2022-11-02T06:14:44.418Z,8.70
2022-11-02T06:19:46.190Z,8.70
2022-11-02T06:24:47.935Z,8.70
2022-11-02T06:29:49.687Z,8.80
2022-11-02T06:34:51.529Z,8.80
2022-11-02T06:39:53.279Z,8.80
2022-11-02T06:44:55.457Z,8.80
2022-11-02T06:49:57.204Z,8.90
2022-11-02T06:54:58.936Z,8.90
2022-11-02T07:00:04.910Z,8.90
2022-11-02T07:05:07.037Z,9.00
2022-11-02T07:10:10.916Z,9.10
2022-11-02T07:15:13.728Z,9.10
2022-11-02T07:20:15.620Z,9.20
2022-11-02T07:25:17.362Z,9.30
2022-11-02T07:30:19.632Z,9.30
2022-11-02T07:35:21.830Z,9.40
2022-11-02T07:40:23.776Z,9.40
2022-11-02T07:45:26.007Z,9.60
2022-11-02T07:50:28.160Z,9.80
2022-11-02T07:55:31.104Z,10.00
2022-11-02T08:00:35.569Z,10.30
2022-11-02T08:05:39.195Z,10.60
2022-11-02T08:10:41.784Z,10.90
2022-11-02T08:15:43.684Z,11.20
2022-11-02T08:20:46.304Z,11.40
2022-11-02T08:25:49.886Z,11.70
2022-11-02T08:30:52.110Z,11.90
2022-11-02T08:35:55.292Z,12.00
2022-11-02T08:40:57.485Z,12.00
2022-11-02T08:46:17.073Z,12.10
2022-11-02T08:51:19.131Z,12.10
2022-11-02T08:56:20.864Z,12.20
2022-11-02T09:01:22.678Z,12.10
2022-11-02T09:06:24.580Z,11.90
2022-11-02T09:11:26.393Z,11.90
2022-11-02T09:16:28.256Z,11.80
2022-11-02T09:21:30.048Z,11.80
2022-11-02T09:26:31.835Z,12.00
2022-11-02T09:31:33.904Z,12.10
2022-11-02T09:36:35.800Z,12.30
2022-11-02T09:41:43.401Z,12.60
2022-11-02T09:46:46.989Z,12.80
2022-11-02T09:52:00.485Z,12.90
2022-11-02T09:57:06.314Z,13.10
2022-11-02T10:02:38.649Z,13.30
2022-11-02T10:07:55.392Z,13.60
2022-11-02T10:13:17.179Z,13.80
2022-11-02T10:18:27.993Z,13.90
2022-11-02T10:23:32.722Z,14.00
2022-11-02T10:28:39.716Z,14.10
2022-11-02T10:33:42.019Z,14.20
2022-11-02T10:39:16.822Z,14.30
2022-11-02T10:44:37.303Z,14.30
2022-11-02T10:49:56.840Z,14.40
2022-11-02T10:54:58.648Z,14.50
2022-11-02T11:00:32.594Z,14.50
2022-11-02T11:05:37.827Z,14.70
2022-11-02T11:10:39.855Z,14.80
2022-11-02T11:20:48.159Z,15.20
2022-11-02T11:25:57.679Z,15.30
2022-11-02T11:31:06.162Z,15.40
2022-11-02T11:36:10.470Z,15.40
2022-11-02T11:41:12.797Z,15.30
2022-11-02T11:46:17.024Z,15.40
2022-11-02T11:51:30.159Z,15.30
2022-11-02T11:56:33.051Z,15.30
2022-11-02T12:01:41.113Z,15.30
2022-11-02T12:07:07.857Z,15.30
2022-11-02T12:12:12.986Z,15.30
2022-11-02T12:17:33.317Z,15.30
2022-11-02T12:22:47.364Z,15.30
2022-11-02T12:28:14.237Z,15.30
2022-11-02T12:33:28.215Z,15.20
2022-11-02T12:38:53.607Z,15.30
2022-11-02T12:44:21.665Z,15.40
2022-11-02T12:49:40.569Z,15.60
2022-11-02T12:55:06.333Z,16.20
2022-11-02T13:00:18.779Z,16.50
2022-11-02T13:05:28.038Z,16.30
2022-11-02T13:10:42.197Z,16.60
2022-11-02T13:15:46.751Z,16.50
2022-11-02T13:20:53.257Z,16.70
2022-11-02T13:25:59.305Z,16.90
2022-11-02T13:31:08.598Z,16.80
2022-11-02T13:36:15.276Z,16.80
2022-11-02T13:41:41.134Z,16.80
2022-11-02T13:47:07.035Z,16.60
2022-11-02T13:52:24.737Z,16.60
2022-11-02T13:57:43.485Z,16.30
2022-11-02T14:02:45.568Z,16.20
2022-11-02T14:07:47.458Z,16.30
2022-11-02T14:12:50.126Z,16.20
2022-11-02T14:17:54.925Z,16.20
2022-11-02T14:23:12.132Z,15.80
2022-11-02T14:28:23.050Z,15.50
2022-11-02T14:33:46.388Z,15.40
2022-11-02T14:39:24.794Z,15.10
2022-11-02T14:45:01.433Z,15.00
2022-11-02T14:50:12.164Z,14.80
2022-11-02T14:55:24.888Z,14.90
2022-11-02T15:00:37.653Z,14.80
2022-11-02T15:05:40.556Z,14.70
2022-11-02T15:10:45.395Z,14.60
2022-11-02T15:15:56.158Z,14.50
2022-11-02T15:21:10.093Z,14.40
2022-11-02T15:26:18.602Z,14.30
2022-11-02T15:31:26.166Z,14.20
2022-11-02T15:36:35.887Z,14.10
2022-11-02T15:42:06.889Z,14.10
2022-11-02T15:47:14.583Z,13.90
2022-11-02T15:52:35.120Z,13.80
2022-11-02T15:58:09.249Z,13.80
2022-11-02T16:03:11.362Z,13.70
2022-11-02T16:08:46.177Z,13.60
2022-11-02T16:14:08.137Z,13.40
2022-11-02T16:19:19.712Z,13.40
2022-11-02T16:24:22.255Z,13.30
2022-11-02T16:29:31.245Z,13.20
2022-11-02T16:34:33.679Z,13.10
2022-11-02T16:39:38.598Z,13.10
2022-11-02T16:44:40.622Z,13.10
2022-11-02T16:49:51.199Z,13.00
2022-11-02T16:54:53.104Z,12.90
2022-11-02T17:00:00.553Z,12.90
2022-11-02T17:05:06.372Z,12.90
2022-11-02T17:10:18.686Z,12.80
2022-11-02T17:15:23.348Z,12.60
2022-11-02T17:20:25.608Z,12.60
2022-11-02T17:25:30.118Z,12.50
2022-11-02T17:30:34.931Z,12.50
2022-11-02T17:35:37.115Z,12.40
2022-11-02T17:40:39.026Z,12.40
2022-11-02T17:45:40.813Z,12.30
2022-11-02T17:50:44.376Z,12.20
2022-11-02T17:55:46.166Z,12.20
2022-11-02T18:00:48.651Z,12.10
2022-11-02T18:05:52.529Z,12.10
2022-11-02T18:10:56.756Z,12.00
2022-11-02T18:15:58.538Z,12.10
2022-11-02T18:21:00.327Z,11.90
2022-11-02T18:26:02.417Z,11.90
2022-11-02T18:31:08.448Z,11.90
2022-11-02T18:36:11.725Z,11.90
2022-11-02T18:41:33.511Z,11.80
2022-11-02T18:46:35.848Z,11.70
2022-11-02T18:51:37.797Z,11.70
2022-11-02T18:56:40.774Z,11.60
2022-11-02T19:01:42.853Z,11.50
2022-11-02T19:07:03.324Z,11.50
2022-11-02T19:12:07.324Z,11.50
2022-11-02T19:17:10.853Z,11.30
2022-11-02T19:22:13.974Z,11.30
2022-11-02T19:27:21.462Z,11.30
2022-11-02T19:32:23.644Z,11.20
2022-11-02T19:37:26.023Z,11.10
2022-11-02T19:42:27.892Z,11.00
2022-11-02T19:47:29.696Z,10.90
2022-11-02T19:52:31.445Z,10.80
2022-11-02T19:57:33.583Z,10.60
2022-11-02T20:02:35.430Z,10.50
2022-11-02T20:07:37.272Z,10.40
2022-11-02T20:12:39.051Z,10.30
2022-11-02T20:17:58.275Z,10.20
2022-11-02T20:23:02.739Z,10.20
2022-11-02T20:28:04.797Z,10.10
2022-11-02T20:33:06.685Z,10.00
2022-11-02T20:38:08.557Z,10.00
2022-11-02T20:43:10.486Z,9.90
2022-11-02T20:48:12.599Z,9.80
2022-11-02T20:53:14.468Z,9.80
2022-11-02T20:58:16.539Z,9.70
2022-11-02T21:03:19.247Z,9.70
2022-11-02T21:08:22.385Z,9.60
2022-11-02T21:13:43.243Z,9.50
2022-11-02T21:18:45.205Z,9.50
2022-11-02T21:23:47.478Z,9.40
2022-11-02T21:28:49.370Z,9.30
2022-11-02T21:33:51.486Z,9.20
2022-11-02T21:38:53.340Z,9.20
2022-11-02T21:43:55.865Z,9.10
2022-11-02T21:48:57.704Z,9.10
2022-11-02T21:54:00.792Z,9.00
2022-11-02T21:59:03.047Z,8.90
2022-11-02T22:04:05.576Z,8.90
2022-11-02T22:09:10.471Z,8.90
2022-11-02T22:14:13.288Z,8.80
2022-11-02T22:19:15.370Z,8.80
2022-11-02T22:24:17.266Z,8.80
2022-11-02T22:29:19.770Z,8.70
2022-11-02T22:34:21.520Z,8.70
2022-11-02T22:39:23.295Z,8.60
2022-11-02T22:44:25.187Z,8.60
2022-11-02T22:49:26.953Z,8.50
2022-11-02T22:54:28.897Z,8.50
2022-11-02T22:59:32.647Z,8.50
2022-11-02T23:04:34.443Z,8.50
2022-11-02T23:09:36.228Z,8.40
2022-11-02T23:14:38.001Z,8.40
2022-11-02T23:19:39.856Z,8.30
2022-11-02T23:25:04.527Z,8.30
2022-11-02T23:30:25.312Z,8.20
2022-11-02T23:35:45.761Z,8.20
2022-11-02T23:40:47.907Z,8.10
2022-11-02T23:45:49.670Z,8.00
2022-11-02T23:51:10.082Z,8.00
2022-11-02T23:56:35.209Z,8.00
